Rivers, Canada
Current Conditions -  °F | °C
As of 1:00 PM on Friday 24 Oct 2014 (Local Time) from CYBR Reporting Station
Broken Clouds Broken Clouds  
Wind Chill: 64°   Ceiling: 23000
Heat Index: 64°   Visibility: 15mi
Dew Point: 37°   Wind: 30mph
Humidity: 37%   Direction: 270°W
Pressure: 29.67"   Gusts: 37mph
Location:  50.03°N, 100.22°W
Report Text: CYBR 241800Z 27026G32KT 15SM BKN230 18/03 A2967 RMK CI7 SLP058 DENSITY ALT 2200FT
Loading
Personal Weather Stations






























Interactive Weather Map
Tropical Storm Tracking
New forecast layout! Learn more

10-Day Weather Forecast

Advertisements
Track Severe Weather on mobile